| |
Missouri Department of Transportation

Social Media Facebook Twitter Flickr Instagram YouTube RSS

Current METAR Information for All MoDOT Locations 
AWOS Home - General Info for all Airports
Current AWOS for all Airports - Current METAR for all Airports
Glossary - Disclaimer - Other Links


Automated Weather Observation System
Date: 05-29-2015
 
Location Current METAR Record
HANNIBAL METAR KHAE 291620Z AUTO 20008KT 10SM SCT020 SCT025 26/19 A3002 RMK AO2
HARRISONVILLE METAR KLRY 291622Z AUTO 20006KT 10SM -RA SCT029 SCT040 BKN110 21/19 A3004 RMK AO2
LEBANON METAR KLBO 291615Z AUTO 00000KT 5SM RA BKN003 OVC017 20/18 A3009 RMK AO2
MALDEN METAR KMAW 291609Z AUTO 17007KT 10SM SCT023 SCT029 28/21 A3008 RMK AO2
MARSHALL  No current data available
MARYVILLE  No current data available
MEXICO  No current data available
MOBERLY  No current data available
NEVADA METAR KNVD 291700Z AUTO 13004KT 7SM -RA SCT031 BKN043 OVC065 19/18 A3005 RMK AO2
PIEDMONT  No current data available
SIKESTON  No current data available
SULLIVAN  No current data available
WARSAW METAR KRAW 291624Z AUTO 22008KT 10SM -RA SCT009 20/19 A3005 RMK AO2
About Us
How Do I...
Contact Us
Missouri Department of Transportation
Central Office
105 W. Capitol Avenue
Jefferson City, MO 65102
1-888-ASK-MODOT (275-6636)
1-866-831-6277 (Motor Carrier Services)
Driver's License Offices
horz_bar
| | |
Missouri State Government
© 2013 Missouri Department of Transportation. All Rights Reserved.   Privacy Policy.
 
 
 
 
RSS FeedYoutubeBlogFlickrTwitter Facebook